Time;durP1;ratioP1;P1;durP2;ratioP2;P2;SDS_P1;SDS_P2;PMS_P1;PMS_P2;Temp;Humidity;BMP_temperature;BMP_pressure;BME280_temperature;BME280_humidity;BME280_pressure;Samples;Min_cycle;Max_cycle;Signal;HPM_P1;HPM_P2
2023/10/28 00:01:22;;;;;;;0.80;0.80;;;;;;;19.52;100.00;99039.56;5090615;28;20209;-75
2023/10/28 00:03:49;;;;;;;0.80;0.80;;;;;;;19.49;100.00;99047.59;5091535;28;20206;-75
2023/10/28 00:06:15;;;;;;;0.80;0.80;;;;;;;19.52;100.00;99044.84;5091456;28;20226;-74
2023/10/28 00:08:42;;;;;;;1.38;1.20;;;;;;;19.49;100.00;99042.31;5085154;28;20199;-75
2023/10/28 00:11:11;;;;;;;7.72;1.27;;;;;;;19.44;100.00;99031.16;5075654;28;20285;-74
2023/10/28 00:13:39;;;;;;;0.75;0.75;;;;;;;18.79;100.00;98934.56;5071311;28;20202;-74
2023/10/28 00:16:06;;;;;;;0.80;0.80;;;;;;;19.27;100.00;99021.19;5054875;28;20206;-75
2023/10/28 00:18:33;;;;;;;0.70;0.70;;;;;;;19.05;100.00;98984.34;5092674;28;20202;-78
2023/10/28 00:21:00;;;;;;;0.70;0.70;;;;;;;19.18;100.00;99017.16;5080372;28;20236;-72
2023/10/28 00:23:27;;;;;;;3.10;1.45;;;;;;;19.01;100.00;99003.78;5038832;28;20213;-73
2023/10/28 00:26:01;;;;;;;1.42;1.33;;;;;;;19.02;100.00;99009.88;5091508;28;20624;-74
2023/10/28 00:28:32;;;;;;;0.80;0.80;;;;;;;18.81;100.00;99024.63;5091459;28;20274;-74
2023/10/28 00:31:00;;;;;;;0.70;0.70;;;;;;;18.77;100.00;99009.91;5039778;28;20621;-74
2023/10/28 00:33:27;;;;;;;0.90;0.90;;;;;;;18.68;100.00;99016.34;5091383;28;20283;-75
2023/10/28 00:35:57;;;;;;;1.08;1.08;;;;;;;18.52;100.00;98994.16;5091195;28;20206;-74
2023/10/28 00:38:24;;;;;;;0.73;0.73;;;;;;;18.56;100.00;99015.91;5091085;28;20205;-74
2023/10/28 00:40:50;;;;;;;0.80;0.80;;;;;;;18.61;100.00;99030.59;5089415;28;20607;-74
2023/10/28 00:43:22;;;;;;;0.82;0.82;;;;;;;18.49;100.00;99030.97;5031728;28;20314;-75
2023/10/28 00:45:51;;;;;;;0.80;0.80;;;;;;;18.51;100.00;99017.84;5050835;28;20261;-74
2023/10/28 00:48:19;;;;;;;0.80;0.80;;;;;;;18.34;100.00;98969.34;5051072;28;20203;-73
2023/10/28 00:50:46;;;;;;;0.77;0.77;;;;;;;18.58;100.00;99014.97;5049099;28;20253;-75
2023/10/28 00:53:13;;;;;;;0.70;0.70;;;;;;;18.53;100.00;99013.38;5050877;28;20203;-73
2023/10/28 00:55:40;;;;;;;0.77;0.77;;;;;;;18.53;100.00;99016.88;5050964;28;20583;-74
2023/10/28 00:58:09;;;;;;;0.90;0.90;;;;;;;18.40;100.00;98984.06;5045064;28;20204;-74
2023/10/28 01:00:36;;;;;;;0.80;0.80;;;;;;;18.43;100.00;98993.56;5042834;28;20210;-74
2023/10/28 01:03:04;;;;;;;0.80;0.80;;;;;;;18.37;100.00;98993.81;5050497;28;20235;-75
2023/10/28 01:05:34;;;;;;;1.40;1.40;;;;;;;18.45;100.00;99018.84;5050726;28;20206;-74
2023/10/28 01:08:00;;;;;;;0.70;0.70;;;;;;;18.48;100.00;99031.88;5032694;28;20203;-73
2023/10/28 01:10:28;;;;;;;0.80;0.80;;;;;;;18.47;100.00;99039.81;5043952;28;20203;-74
2023/10/28 01:12:55;;;;;;;1.52;1.52;;;;;;;18.46;100.00;99040.72;5050745;28;20593;-74
2023/10/28 01:15:23;;;;;;;0.80;0.80;;;;;;;18.21;100.00;99010.03;5050694;28;20195;-74
2023/10/28 01:17:50;;;;;;;0.73;0.73;;;;;;;18.41;100.00;99058.41;5051015;28;20260;-73
2023/10/28 01:20:18;;;;;;;0.80;0.80;;;;;;;18.43;100.00;99065.31;5049709;28;20207;-74
2023/10/28 01:22:46;;;;;;;0.70;0.70;;;;;;;18.40;100.00;99065.41;5049810;28;20207;-75
2023/10/28 01:25:13;;;;;;;0.80;0.80;;;;;;;18.40;100.00;99072.44;5014434;28;20195;-73
2023/10/28 01:27:40;;;;;;;0.70;0.70;;;;;;;18.39;100.00;99070.69;5049910;28;20281;-74
2023/10/28 01:30:13;;;;;;;0.73;0.73;;;;;;;18.39;100.00;99061.06;5038885;28;20188;-73
2023/10/28 01:32:40;;;;;;;0.80;0.80;;;;;;;18.39;100.00;99054.94;5049718;28;20260;-74
2023/10/28 01:35:09;;;;;;;0.80;0.80;;;;;;;18.43;100.00;99059.19;5050360;28;20216;-73
2023/10/28 01:37:37;;;;;;;0.80;0.80;;;;;;;18.46;100.00;99057.31;5050536;28;20208;-74
2023/10/28 01:40:12;;;;;;;0.80;0.80;;;;;;;18.27;100.00;99030.81;5047174;28;20202;-74
2023/10/28 01:42:39;;;;;;;0.80;0.80;;;;;;;18.56;100.00;99063.16;4981451;28;20244;-73
2023/10/28 01:45:07;;;;;;;0.70;0.70;;;;;;;18.54;100.00;99039.59;5038035;28;20218;-74
2023/10/28 01:47:34;;;;;;;0.70;0.70;;;;;;;18.66;100.00;99064.56;5089892;28;20234;-74
2023/10/28 01:50:01;;;;;;;0.80;0.80;;;;;;;18.68;100.00;99054.88;5091197;28;20225;-74
2023/10/28 01:52:28;;;;;;;0.80;0.80;;;;;;;18.70;100.00;99051.28;5094194;28;20216;-74
2023/10/28 01:54:55;;;;;;;1.50;1.50;;;;;;;18.72;100.00;99049.47;5094294;28;20197;-74
2023/10/28 01:57:24;;;;;;;0.70;0.70;;;;;;;18.85;100.00;99059.53;5078116;28;20199;-75
2023/10/28 01:59:51;;;;;;;0.70;0.70;;;;;;;18.85;100.00;99052.53;5074765;28;20203;-74
2023/10/28 02:02:18;;;;;;;0.85;0.85;;;;;;;18.90;100.00;99061.09;5093700;28;20245;-74
2023/10/28 02:04:45;;;;;;;0.70;0.70;;;;;;;18.89;100.00;99062.00;5094054;28;20198;-74
2023/10/28 02:07:12;;;;;;;0.70;0.70;;;;;;;18.93;100.00;99062.75;5093015;28;20233;-74
2023/10/28 02:09:39;;;;;;;0.82;0.82;;;;;;;18.83;100.00;99074.50;5093955;28;20197;-75
2023/10/28 02:12:06;;;;;;;0.73;0.73;;;;;;;18.67;100.00;99082.91;5093546;28;20205;-74
2023/10/28 02:14:35;;;;;;;0.60;0.60;;;;;;;18.70;100.00;99102.94;5008481;28;20247;-75
2023/10/28 02:17:02;;;;;;;0.70;0.70;;;;;;;18.85;100.00;99101.56;5074968;28;20194;-74
2023/10/28 02:19:29;;;;;;;0.70;0.70;;;;;;;18.89;100.00;99109.28;5094004;28;20200;-75
2023/10/28 02:21:58;;;;;;;0.90;0.90;;;;;;;18.90;100.00;99113.66;5093490;28;20202;-74
2023/10/28 02:24:25;;;;;;;0.70;0.70;;;;;;;18.94;100.00;99111.78;5075008;28;20305;-75
2023/10/28 02:26:52;;;;;;;0.73;0.73;;;;;;;18.39;100.00;99019.06;5073899;28;20222;-74
2023/10/28 02:29:19;;;;;;;0.73;0.73;;;;;;;18.83;100.00;99105.09;5057726;28;20618;-75
2023/10/28 02:31:48;;;;;;;2.97;0.95;;;;;;;19.04;100.00;99121.91;5093434;28;20198;-75
2023/10/28 02:34:15;;;;;;;1.13;1.13;;;;;;;19.02;100.00;99128.97;5093607;28;20201;-74
2023/10/28 02:36:42;;;;;;;1.55;1.05;;;;;;;19.01;100.00;99136.91;5092506;28;20198;-74
2023/10/28 02:39:09;;;;;;;0.73;0.73;;;;;;;18.98;100.00;99134.41;5093255;28;20202;-74
2023/10/28 02:41:38;;;;;;;0.70;0.70;;;;;;;19.06;100.00;99127.94;5093488;28;20198;-75
2023/10/28 02:44:06;;;;;;;1.75;1.65;;;;;;;18.47;100.00;99027.56;5042360;28;20232;-75
2023/10/28 02:46:32;;;;;;;0.63;0.63;;;;;;;19.04;100.00;99131.56;5093533;28;20229;-75
2023/10/28 02:49:00;;;;;;;2.33;1.10;;;;;;;18.87;100.00;99111.09;5093476;28;20642;-75
2023/10/28 02:51:28;;;;;;;0.80;0.80;;;;;;;18.98;100.00;99147.53;5093372;28;20194;-74
2023/10/28 02:53:55;;;;;;;0.70;0.70;;;;;;;18.65;100.00;99118.00;5041420;28;20202;-74
2023/10/28 02:56:22;;;;;;;0.70;0.70;;;;;;;18.90;100.00;99139.91;5091703;28;20198;-74
2023/10/28 02:58:49;;;;;;;0.70;0.70;;;;;;;18.88;100.00;99157.47;5073071;28;20205;-75
2023/10/28 03:01:15;;;;;;;0.57;0.57;;;;;;;18.86;100.00;99143.53;5073296;28;20198;-76
2023/10/28 03:03:43;;;;;;;0.70;0.70;;;;;;;18.70;100.00;99108.19;5073239;28;20194;-73
2023/10/28 03:06:11;;;;;;;0.90;0.90;;;;;;;18.86;100.00;99143.53;5064100;28;20285;-73
2023/10/28 03:08:39;;;;;;;0.80;0.80;;;;;;;18.85;100.00;99139.19;5093102;28;20194;-74
2023/10/28 03:11:06;;;;;;;0.70;0.70;;;;;;;18.66;100.00;99127.56;5093113;28;20225;-75
2023/10/28 03:13:32;;;;;;;0.70;0.70;;;;;;;18.71;100.00;99149.31;5093134;28;20198;-74
2023/10/28 03:15:59;;;;;;;0.82;0.82;;;;;;;18.74;100.00;99151.81;5090146;28;20210;-73
2023/10/28 03:18:26;;;;;;;0.85;0.85;;;;;;;18.66;100.00;99136.31;5072703;28;20203;-74
2023/10/28 03:20:55;;;;;;;0.80;0.80;;;;;;;18.74;100.00;99151.81;5072877;28;20206;-75
2023/10/28 03:23:23;;;;;;;0.80;0.80;;;;;;;18.74;100.00;99170.19;5072530;28;20203;-74
2023/10/28 03:25:50;;;;;;;0.70;0.70;;;;;;;18.79;100.00;99165.66;5073337;28;20214;-75
2023/10/28 03:28:17;;;;;;;0.90;0.90;;;;;;;18.74;100.00;99167.56;5072440;28;20325;-76
2023/10/28 03:30:44;;;;;;;0.80;0.80;;;;;;;18.77;100.00;99172.72;5072346;28;20631;-76
2023/10/28 03:33:11;;;;;;;0.80;0.80;;;;;;;18.92;100.00;99164.34;5072403;28;20198;-74
2023/10/28 03:35:38;;;;;;;0.90;0.90;;;;;;;18.80;100.00;99144.59;5072353;28;20204;-74
2023/10/28 03:38:04;;;;;;;2.20;2.10;;;;;;;18.96;100.00;99163.34;5072084;28;20234;-74
2023/10/28 03:40:33;;;;;;;0.88;0.88;;;;;;;19.00;100.00;99169.34;5072148;28;20646;-73
2023/10/28 03:43:00;;;;;;;0.60;0.60;;;;;;;19.02;100.00;99171.00;5072203;28;20234;-75
2023/10/28 03:45:28;;;;;;;0.77;0.77;;;;;;;18.89;100.00;99138.19;5072137;28;20198;-75
2023/10/28 03:47:55;;;;;;;0.70;0.70;;;;;;;19.03;100.00;99154.34;5071902;28;20230;-74
2023/10/28 03:50:21;;;;;;;1.13;1.13;;;;;;;19.02;100.00;99152.63;5072086;28;20607;-74
2023/10/28 03:52:48;;;;;;;0.98;0.90;;;;;;;19.07;100.00;99161.22;5071975;28;20214;-75
2023/10/28 03:55:15;;;;;;;1.02;1.02;;;;;;;18.95;100.00;99143.22;5072211;28;20713;-74
2023/10/28 03:57:43;;;;;;;1.13;1.13;;;;;;;19.07;100.00;99166.47;5035439;28;20195;-74
2023/10/28 04:00:13;;;;;;;0.77;0.77;;;;;;;19.06;100.00;99161.25;5071696;28;20501;-72
2023/10/28 04:02:39;;;;;;;0.70;0.70;;;;;;;19.11;100.00;99168.09;5037759;28;20293;-74
2023/10/28 04:05:07;;;;;;;0.80;0.80;;;;;;;19.09;100.00;99172.50;5073737;28;20241;-74
2023/10/28 04:07:34;;;;;;;1.05;1.05;;;;;;;19.06;100.00;99164.75;5091833;28;20226;-75
2023/10/28 04:10:04;;;;;;;1.17;1.10;;;;;;;19.02;100.00;99171.00;5091909;28;20205;-74
2023/10/28 04:12:32;;;;;;;0.60;0.60;;;;;;;19.02;100.00;99164.88;5096407;28;20676;-75
2023/10/28 04:15:00;;;;;;;0.80;0.80;;;;;;;18.87;100.00;99158.38;5107043;28;20229;-75
2023/10/28 04:17:30;;;;;;;0.70;0.70;;;;;;;18.63;100.00;99122.44;5108347;28;20193;-74
2023/10/28 04:19:57;;;;;;;0.73;0.73;;;;;;;19.04;100.00;99182.34;5096958;28;20198;-75
2023/10/28 04:22:24;;;;;;;1.05;1.05;;;;;;;19.10;100.00;99176.88;5090281;28;20213;-74
